Time;durP1;ratioP1;P1;durP2;ratioP2;P2;SDS_P1;SDS_P2;PMS_P1;PMS_P2;Temp;Humidity;BMP_temperature;BMP_pressure;BME280_temperature;BME280_humidity;BME280_pressure;Samples;Min_cycle;Max_cycle;Signal;HPM_P1;HPM_P2
2023/10/11 00:02:51;;;;;;;1437.13;533.80;;;16.60;99.90;;;;;;5056377;28;20053;-85
2023/10/11 00:05:17;;;;;;;1432.23;531.50;;;16.60;99.90;;;;;;5073969;28;20047;-85
2023/10/11 00:07:44;;;;;;;1431.47;530.97;;;16.60;99.90;;;;;;5065705;28;20396;-85
2023/10/11 00:10:10;;;;;;;1423.90;537.50;;;16.60;99.90;;;;;;5093841;28;20040;-85
2023/10/11 00:12:41;;;;;;;1429.97;538.43;;;16.60;99.90;;;;;;5093581;28;20043;-85
2023/10/11 00:15:09;;;;;;;1316.37;463.90;;;16.60;99.90;;;;;;5075322;28;20052;-85
2023/10/11 00:17:36;;;;;;;1319.33;464.03;;;16.60;99.90;;;;;;5094328;28;20056;-85
2023/10/11 00:20:17;;;;;;;1315.90;461.53;;;16.60;99.90;;;;;;5076223;28;20310;-85
2023/10/11 00:22:43;;;;;;;1425.17;518.67;;;16.70;99.90;;;;;;5063198;28;20103;-84
2023/10/11 00:25:09;;;;;;;1434.27;519.30;;;16.70;99.90;;;;;;5056089;28;20512;-84
2023/10/11 00:27:36;;;;;;;1323.70;462.63;;;16.70;99.90;;;;;;5073781;28;20582;-85
2023/10/11 00:30:02;;;;;;;1336.17;457.40;;;16.70;99.90;;;;;;5039555;28;20782;-85
2023/10/11 00:32:28;;;;;;;1328.00;464.43;;;16.70;99.90;;;;;;5057241;28;20044;-85
2023/10/11 00:34:54;;;;;;;1329.60;465.23;;;16.70;99.90;;;;;;5056877;28;20488;-85
2023/10/11 00:37:20;;;;;;;1329.30;461.17;;;16.70;99.90;;;;;;5074088;28;20040;-85
2023/10/11 00:39:46;;;;;;;1331.30;468.80;;;16.70;99.90;;;;;;5055957;28;20527;-85
2023/10/11 00:42:11;;;;;;;1456.97;536.67;;;16.70;99.90;;;;;;5056638;28;20086;-85
2023/10/11 00:44:38;;;;;;;1337.83;465.03;;;16.70;99.90;;;;;;5091830;28;20484;-85
2023/10/11 00:47:06;;;;;;;1339.53;462.00;;;16.70;99.90;;;;;;5075960;28;20392;-85
2023/10/11 00:49:39;;;;;;;1345.03;510.50;;;16.70;99.90;;;;;;5093959;28;20032;-85
2023/10/11 00:52:08;;;;;;;1449.87;559.13;;;16.70;99.90;;;;;;5075954;28;20077;-85
2023/10/11 00:54:38;;;;;;;1364.43;560.33;;;16.70;99.90;;;;;;5063644;28;20476;-85
2023/10/11 00:57:05;;;;;;;1462.40;553.50;;;16.70;99.90;;;;;;5085403;28;20510;-85
2023/10/11 00:59:30;;;;;;;1371.77;537.80;;;16.70;99.90;;;;;;5075490;28;20044;-86
2023/10/11 01:01:58;;;;;;;1368.97;534.43;;;16.70;99.90;;;;;;5094033;28;20403;-85
2023/10/11 01:04:27;;;;;;;1470.00;531.93;;;16.70;99.90;;;;;;5073936;28;20032;-85
2023/10/11 01:06:53;;;;;;;1475.40;528.93;;;16.70;99.90;;;;;;5075048;28;20130;-85
2023/10/11 01:09:26;;;;;;;1361.73;505.03;;;16.70;99.90;;;;;;5074099;28;20141;-85
2023/10/11 01:11:52;;;;;;;1368.37;501.47;;;16.70;99.90;;;;;;5075592;28;20094;-85
2023/10/11 01:14:17;;;;;;;1361.87;490.93;;;16.70;99.90;;;;;;5091697;28;20040;-85
2023/10/11 01:16:43;;;;;;;1473.40;528.30;;;16.70;99.90;;;;;;5074941;28;20057;-85
2023/10/11 01:19:15;;;;;;;1465.10;523.23;;;16.70;99.90;;;;;;5092987;28;20459;-85
2023/10/11 01:21:47;;;;;;;1472.93;539.23;;;16.60;99.90;;;;;;5074510;28;20056;-85
2023/10/11 01:24:16;;;;;;;1354.90;476.50;;;16.60;99.90;;;;;;5075594;28;20135;-85
2023/10/11 01:26:42;;;;;;;1357.10;479.03;;;16.60;99.90;;;;;;5089914;28;20052;-85
2023/10/11 01:29:09;;;;;;;1359.30;477.93;;;16.60;99.90;;;;;;5056336;28;20118;-85
2023/10/11 01:31:36;;;;;;;1361.33;476.67;;;16.60;99.90;;;;;;5054931;28;20504;-85
2023/10/11 01:34:02;;;;;;;1472.70;533.40;;;16.70;99.90;;;;;;5038915;28;20051;-85
2023/10/11 01:36:28;;;;;;;1473.27;536.23;;;16.60;99.90;;;;;;5064892;28;20051;-85
2023/10/11 01:38:54;;;;;;;1345.83;466.77;;;16.60;99.90;;;;;;5074844;28;20036;-85
2023/10/11 01:41:27;;;;;;;1359.43;470.60;;;16.60;99.90;;;;;;5058203;28;20051;-85
2023/10/11 01:43:55;;;;;;;1346.93;472.13;;;16.60;99.90;;;;;;5091525;28;20043;-85
2023/10/11 01:46:26;;;;;;;1465.20;529.83;;;16.60;99.90;;;;;;5056315;28;20040;-86
2023/10/11 01:48:53;;;;;;;1470.10;526.13;;;16.60;99.90;;;;;;5072387;28;20173;-85
2023/10/11 01:51:26;;;;;;;1345.70;460.53;;;16.60;99.90;;;;;;5075114;28;20044;-85
2023/10/11 01:54:04;;;;;;;1345.30;468.07;;;16.60;99.90;;;;;;5093014;28;20301;-85
2023/10/11 01:56:30;;;;;;;1462.97;527.60;;;16.60;99.90;;;;;;5092174;28;20043;-85
2023/10/11 01:58:56;;;;;;;1348.70;468.13;;;16.60;99.90;;;;;;5055642;28;20594;-86
2023/10/11 02:01:26;;;;;;;1341.23;465.07;;;16.60;99.90;;;;;;5055058;28;20052;-86
2023/10/11 02:03:55;;;;;;;1457.27;535.97;;;16.50;99.90;;;;;;5072590;28;20492;-86
2023/10/11 02:06:22;;;;;;;1458.00;532.23;;;16.60;99.90;;;;;;5054766;28;20501;-85
2023/10/11 02:08:48;;;;;;;1454.70;534.20;;;16.60;99.90;;;;;;5055861;28;20497;-86
2023/10/11 02:11:14;;;;;;;1452.57;525.57;;;16.60;99.90;;;;;;5038222;28;20045;-86
2023/10/11 02:13:44;;;;;;;1455.03;534.53;;;16.60;99.90;;;;;;5054761;28;20095;-85
2023/10/11 02:16:12;;;;;;;1463.07;539.90;;;16.60;99.90;;;;;;5072623;28;20048;-85
2023/10/11 02:18:39;;;;;;;1468.77;536.40;;;16.60;99.90;;;;;;5055415;28;20095;-85
2023/10/11 02:21:06;;;;;;;1336.97;463.67;;;16.60;99.90;;;;;;5054608;28;20451;-85
2023/10/11 02:23:42;;;;;;;1449.87;534.53;;;16.60;99.90;;;;;;5055062;28;20040;-85
2023/10/11 02:26:14;;;;;;;;;;;16.60;99.90;;;;;;5074921;28;20052;-84
2023/10/11 02:28:40;;;;;;;1450.47;536.93;;;16.60;99.90;;;;;;5067405;28;20412;-85
2023/10/11 02:31:07;;;;;;;1339.40;459.57;;;16.50;99.90;;;;;;5070282;28;20064;-85
2023/10/11 02:33:33;;;;;;;1338.23;462.93;;;16.50;99.90;;;;;;5072586;28;20340;-85
2023/10/11 02:36:08;;;;;;;1327.53;462.50;;;16.60;99.90;;;;;;5072361;28;20040;-85
2023/10/11 02:38:50;;;;;;;1445.33;538.10;;;16.60;99.90;;;;;;5076447;28;20055;-85
2023/10/11 02:41:25;;;;;;;1327.20;456.47;;;16.60;99.90;;;;;;5059224;28;20116;-85
2023/10/11 02:43:52;;;;;;;1436.65;532.90;;;16.50;99.90;;;;;;5058087;28;20040;-85
2023/10/11 02:46:23;;;;;;;1318.50;456.80;;;16.50;99.90;;;;;;5058568;28;20097;-85
2023/10/11 02:48:52;;;;;;;1442.53;541.37;;;16.50;99.90;;;;;;5058293;28;20299;-86
2023/10/11 02:51:24;;;;;;;1439.53;535.83;;;16.50;99.90;;;;;;5059237;28;20048;-85
2023/10/11 02:53:53;;;;;;;1320.90;460.87;;;16.50;99.90;;;;;;5058431;28;20128;-85
2023/10/11 02:56:19;;;;;;;1431.50;522.47;;;16.50;99.90;;;;;;5076129;28;20636;-85
2023/10/11 02:58:46;;;;;;;1318.33;466.13;;;16.50;99.90;;;;;;5058179;28;20102;-86
2023/10/11 03:01:20;;;;;;;1315.43;463.43;;;16.30;99.90;;;;;;5086064;28;20068;-85
2023/10/11 03:03:48;;;;;;;1319.77;464.83;;;16.50;99.90;;;;;;5077508;28;20763;-85
2023/10/11 03:06:13;;;;;;;1430.60;522.73;;;16.50;99.90;;;;;;5078458;28;20325;-85
2023/10/11 03:08:43;;;;;;;1315.77;459.53;;;16.50;99.90;;;;;;5073978;28;20087;-85
2023/10/11 03:11:15;;;;;;;1433.20;539.53;;;16.50;99.90;;;;;;5076311;28;20485;-86
2023/10/11 03:13:42;;;;;;;1314.70;462.20;;;16.50;99.90;;;;;;5057962;28;20332;-85
2023/10/11 03:16:12;;;;;;;1433.53;536.30;;;16.50;99.90;;;;;;5075578;28;20283;-85
2023/10/11 03:18:39;;;;;;;1433.13;537.60;;;16.50;99.90;;;;;;5057661;28;20396;-86
2023/10/11 03:21:17;;;;;;;1422.40;522.90;;;16.40;99.90;;;;;;5057516;28;20194;-85
2023/10/11 03:23:55;;;;;;;1427.27;536.53;;;16.50;99.90;;;;;;5074322;28;20100;-85
2023/10/11 03:26:31;;;;;;;1308.97;459.67;;;16.50;99.90;;;;;;5076752;28;20045;-86
2023/10/11 03:29:05;;;;;;;1426.57;539.37;;;16.50;99.90;;;;;;5086692;28;20815;-86
2023/10/11 03:31:40;;;;;;;1312.07;462.40;;;16.50;99.90;;;;;;5077458;28;20094;-85
2023/10/11 03:34:12;;;;;;;1319.03;462.43;;;16.40;99.90;;;;;;5083868;28;20301;-85
2023/10/11 03:36:51;;;;;;;1304.23;465.90;;;16.50;99.90;;;;;;5077506;28;20282;-86
2023/10/11 03:42:17;;;;;;;1313.13;466.70;;;16.40;99.90;;;;;;4996754;28;20297;-85
2023/10/11 03:44:46;;;;;;;1424.83;540.60;;;16.40;99.90;;;;;;4994838;28;20046;-85
2023/10/11 03:47:23;;;;;;;1416.63;526.03;;;16.50;99.90;;;;;;4996278;28;20457;-86
2023/10/11 03:49:52;;;;;;;1303.23;463.70;;;16.50;99.90;;;;;;5011448;28;20046;-85
2023/10/11 03:52:30;;;;;;;1419.00;542.57;;;16.50;99.90;;;;;;5013393;28;20042;-86
2023/10/11 03:55:09;;;;;;;1412.23;540.10;;;16.50;99.90;;;;;;4996807;28;20495;-85
2023/10/11 03:57:41;;;;;;;1312.03;471.73;;;16.40;99.90;;;;;;5013092;28;20064;-85
2023/10/11 04:00:24;;;;;;;1297.63;466.00;;;16.40;99.90;;;;;;5012796;28;20309;-86
2023/10/11 04:02:57;;;;;;;1404.03;541.60;;;16.40;99.90;;;;;;4994720;28;20380;-85
2023/10/11 04:05:35;;;;;;;1295.33;465.87;;;16.40;99.90;;;;;;4993437;28;20308;-86
2023/10/11 04:08:05;;;;;;;1402.97;537.53;;;16.40;99.90;;;;;;4977438;28;20310;-85
2023/10/11 04:10:49;;;;;;;1291.83;464.80;;;16.30;99.90;;;;;;4993374;28;20297;-85
2023/10/11 04:13:15;;;;;;;1293.10;465.43;;;16.40;99.90;;;;;;4993035;28;20852;-85
2023/10/11 04:15:49;;;;;;;1287.93;474.27;;;16.30;99.90;;;;;;4977265;28;20312;-85
2023/10/11 04:18:20;;;;;;;1287.57;471.03;;;16.30;99.90;;;;;;4987758;28;20887;-85
2023/10/11 04:20:59;;;;;;;1391.97;540.63;;;16.30;99.90;;;;;;5045417;28;20342;-85
2023/10/11 04:23:27;;;;;;;1277.20;471.47;;;16.30;99.90;;;;;;5038064;28;20635;-85
2023/10/11 04:25:55;;;;;;;1378.93;542.23;;;16.30;99.90;;;;;;5056497;28;20290;-84
2023/10/11 04:28:23;;;;;;;1281.17;470.17;;;16.20;99.90;;;;;;5082555;28;20048;-84
2023/10/11 04:30:53;;;;;;;1368.77;524.03;;;16.20;99.90;;;;;;5076554;28;20298;-85
2023/10/11 04:33:22;;;;;;;1274.50;467.60;;;16.20;99.90;;;;;;5094395;28;20040;-85
2023/10/11 04:35:57;;;;;;;1374.07;524.53;;;16.20;99.90;;;;;;5074456;28;20384;-85
2023/10/11 04:38:23;;;;;;;1371.35;525.20;;;16.20;99.90;;;;;;5094485;28;20278;-85
2023/10/11 04:40:51;;;;;;;1278.27;472.30;;;16.20;99.90;;;;;;5076079;28;20400;-85
2023/10/11 04:43:23;;;;;;;1278.00;471.93;;;16.10;99.90;;;;;;5093326;28;20485;-85
2023/10/11 04:45:51;;;;;;;1361.07;537.83;;;16.20;99.90;;;;;;5066938;28;20279;-85
2023/10/11 04:48:36;;;;;;;1360.10;545.63;;;16.10;99.90;;;;;;5078406;28;20290;-85
2023/10/11 04:51:21;;;;;;;1350.90;540.92;;;16.10;99.90;;;;;;5075970;28;20290;-85
2023/10/11 04:59:07;;;;;;;1388.13;549.40;;;16.10;99.90;;;;;;5059464;28;20359;-85
2023/10/11 05:04:27;;;;;;;1335.97;504.93;;;16.10;99.90;;;;;;5073615;28;20088;-85
2023/10/11 05:06:54;;;;;;;1428.07;555.50;;;16.10;99.90;;;;;;5055875;28;20094;-85
2023/10/11 05:11:50;;;;;;;1446.00;539.97;;;16.20;99.90;;;;;;5093799;28;20518;-85
2023/10/11 05:14:29;;;;;;;1457.33;533.57;;;16.20;99.90;;;;;;5059506;28;20048;-85
2023/10/11 05:19:40;;;;;;;1317.40;477.80;;;16.10;99.90;;;;;;5055363;28;20048;-86
2023/10/11 05:22:09;;;;;;;1323.77;469.43;;;16.10;99.90;;;;;;5072915;28;20048;-85
2023/10/11 05:32:49;;;;;;;1348.80;477.20;;;16.10;99.90;;;;;;4937064;28;20017;-84
2023/10/11 05:51:26;;;;;;;1301.73;473.07;;;16.30;99.90;;;;;;4952915;29;20043;-86
2023/10/11 05:53:56;;;;;;;1398.43;544.87;;;16.30;99.90;;;;;;4953377;28;20295;-85
2023/10/11 05:56:22;;;;;;;1274.50;474.33;;;16.30;99.90;;;;;;4953356;29;20362;-83
2023/10/11 05:58:52;;;;;;;1325.27;535.20;;;16.40;99.90;;;;;;4953072;28;20781;-83
2023/10/11 06:01:22;;;;;;;1289.13;457.17;;;16.40;99.90;;;;;;4952489;28;20059;-82
2023/10/11 06:03:51;;;;;;;1409.87;527.13;;;16.40;99.90;;;;;;4980452;28;20307;-84
2023/10/11 06:06:38;;;;;;;1310.73;458.73;;;16.40;99.90;;;;;;4999356;28;20140;-83
2023/10/11 06:09:16;;;;;;;1308.33;459.77;;;16.50;99.90;;;;;;5054956;28;20036;-82
2023/10/11 06:11:49;;;;;;;1417.77;536.67;;;16.40;99.90;;;;;;5055731;28;20040;-84
2023/10/11 06:14:17;;;;;;;1400.03;540.00;;;16.50;99.90;;;;;;5064748;28;20044;-83
2023/10/11 06:16:49;;;;;;;1394.03;542.60;;;16.50;99.90;;;;;;5077777;28;20055;-81
2023/10/11 06:19:16;;;;;;;1281.60;468.73;;;16.50;99.90;;;;;;5096928;28;20055;-82
2023/10/11 06:21:56;;;;;;;1289.70;464.30;;;16.50;99.90;;;;;;5097123;28;20286;-81
2023/10/11 06:24:33;;;;;;;1298.67;463.33;;;16.50;99.90;;;;;;5079254;28;20301;-82
2023/10/11 06:29:46;;;;;;;1383.53;541.63;;;16.60;99.90;;;;;;5101583;28;20376;-83
2023/10/11 06:32:18;;;;;;;1373.80;541.63;;;16.60;99.90;;;;;;5097771;28;20297;-83
2023/10/11 06:34:45;;;;;;;1363.70;546.07;;;16.60;99.90;;;;;;5096423;28;20075;-82
2023/10/11 06:37:14;;;;;;;1239.50;474.27;;;16.60;99.90;;;;;;5098927;28;20286;-83
2023/10/11 06:42:13;;;;;;;1198.80;472.37;;;16.60;99.90;;;;;;5096750;28;20294;-83
2023/10/11 06:44:43;;;;;;;1270.63;534.70;;;16.60;99.90;;;;;;5085650;28;20319;-82
2023/10/11 06:47:11;;;;;;;1257.60;547.43;;;16.60;99.90;;;;;;5072238;28;20319;-83
2023/10/11 06:49:47;;;;;;;1187.17;480.60;;;16.60;99.90;;;;;;5086335;28;20386;-81
2023/10/11 06:52:25;;;;;;;1265.30;480.00;;;16.70;99.90;;;;;;5086102;28;20274;-81
2023/10/11 06:57:39;;;;;;;1194.70;475.80;;;16.70;99.90;;;;;;5087986;28;20435;-82
2023/10/11 07:00:21;;;;;;;1173.57;472.20;;;16.80;99.90;;;;;;5094652;28;20363;-82
2023/10/11 07:03:06;;;;;;;1168.57;467.20;;;16.80;99.90;;;;;;5095236;28;20283;-82
2023/10/11 07:05:56;;;;;;;1174.15;472.23;;;16.80;99.90;;;;;;5095082;28;20321;-81
2023/10/11 07:08:31;;;;;;;1159.20;459.93;;;16.90;99.90;;;;;;5090606;28;20059;-83
2023/10/11 07:11:16;;;;;;;1181.22;467.33;;;16.80;99.90;;;;;;5089798;28;20533;-83
2023/10/11 07:13:54;;;;;;;1270.57;549.30;;;16.90;99.90;;;;;;5081483;28;20435;-83
2023/10/11 07:16:27;;;;;;;1271.93;547.17;;;16.90;99.90;;;;;;5076578;28;20325;-81
2023/10/11 07:18:54;;;;;;;1286.07;547.77;;;16.90;99.90;;;;;;5084216;28;20313;-87
2023/10/11 07:24:19;;;;;;;1208.17;474.10;;;17.00;99.90;;;;;;5066469;28;20369;-83
2023/10/11 07:29:16;;;;;;;1279.57;538.70;;;17.10;99.90;;;;;;5058288;28;20364;-84
2023/10/11 07:31:48;;;;;;;1263.67;531.73;;;17.10;99.90;;;;;;5075691;28;20378;-84
2023/10/11 07:34:25;;;;;;;1269.93;530.63;;;17.20;99.90;;;;;;5075667;28;20295;-84
2023/10/11 07:36:50;;;;;;;1169.70;466.67;;;17.20;99.90;;;;;;5076052;28;20654;-84
2023/10/11 07:39:25;;;;;;;1179.47;471.80;;;16.90;99.90;;;;;;5057021;28;20283;-84
2023/10/11 07:42:00;;;;;;;1263.95;530.08;;;17.20;99.90;;;;;;5057762;28;20048;-84
2023/10/11 07:44:28;;;;;;;1277.70;547.23;;;17.30;99.90;;;;;;5075401;28;20045;-84
2023/10/11 07:46:55;;;;;;;1173.23;473.40;;;17.40;99.90;;;;;;5086238;28;20298;-84
2023/10/11 07:49:23;;;;;;;1165.47;469.67;;;17.30;99.90;;;;;;5095252;28;20294;-84
2023/10/11 07:56:57;;;;;;;1241.80;537.70;;;17.50;99.90;;;;;;5147062;27;1361451;-83
2023/10/11 07:59:27;;;;;;;1250.67;548.57;;;17.60;99.90;;;;;;5153952;27;20046;-83
2023/10/11 08:01:59;;;;;;;1165.40;465.70;;;17.60;99.90;;;;;;5136366;27;20039;-81
2023/10/11 08:04:28;;;;;;;1153.30;459.23;;;17.60;99.90;;;;;;5172164;27;20348;-81
2023/10/11 08:07:03;;;;;;;1158.43;468.07;;;17.60;99.90;;;;;;5172562;27;20298;-84
2023/10/11 08:09:45;;;;;;;1255.93;536.03;;;17.60;99.90;;;;;;5171753;27;20287;-80
2023/10/11 08:12:31;;;;;;;1180.93;478.43;;;17.70;99.90;;;;;;5172289;27;20053;-81
2023/10/11 08:14:57;;;;;;;1248.43;537.23;;;17.70;99.90;;;;;;5153165;27;20807;-87
2023/10/11 08:17:27;;;;;;;1158.90;464.67;;;17.60;99.90;;;;;;5153791;27;20300;-82
2023/10/11 08:19:56;;;;;;;1153.03;464.50;;;17.60;99.90;;;;;;5172168;27;20030;-82
2023/10/11 08:22:25;;;;;;;1251.07;553.73;;;17.60;99.90;;;;;;5153641;27;20782;-82
2023/10/11 08:24:56;;;;;;;1175.07;474.07;;;17.70;99.90;;;;;;5172191;27;20291;-82
2023/10/11 08:27:27;;;;;;;1251.13;533.97;;;17.60;99.90;;;;;;5153301;27;20299;-83
2023/10/11 08:30:09;;;;;;;1257.87;532.67;;;17.70;99.90;;;;;;5172086;27;20871;-86
2023/10/11 08:32:43;;;;;;;1257.50;534.77;;;17.70;99.90;;;;;;5136162;27;20283;-84
2023/10/11 08:35:23;;;;;;;1168.70;470.20;;;17.70;99.90;;;;;;5171553;27;20332;-80
2023/10/11 08:37:52;;;;;;;1166.07;470.33;;;17.70;99.90;;;;;;5171461;27;20355;-84
2023/10/11 08:40:29;;;;;;;1167.27;469.67;;;17.80;99.90;;;;;;5171454;27;20375;-81
2023/10/11 08:42:59;;;;;;;1248.17;534.87;;;17.80;99.90;;;;;;5171901;27;20292;-80
2023/10/11 08:45:33;;;;;;;1159.63;464.93;;;17.80;99.90;;;;;;5171399;27;20275;-82
2023/10/11 08:48:05;;;;;;;1260.57;537.43;;;17.80;99.90;;;;;;5171319;27;20280;-85
2023/10/11 08:50:34;;;;;;;1164.13;471.37;;;17.80;99.90;;;;;;5171603;27;20272;-82
2023/10/11 08:53:07;;;;;;;1168.17;474.53;;;17.80;99.90;;;;;;5152850;27;20294;-85
2023/10/11 08:55:35;;;;;;;1261.30;553.37;;;17.80;99.90;;;;;;5154909;27;20308;-83
2023/10/11 08:58:05;;;;;;;1177.40;479.10;;;17.70;99.90;;;;;;5174354;27;20628;-85
2023/10/11 09:00:33;;;;;;;1181.60;482.43;;;17.70;99.90;;;;;;5153015;27;20284;-86
2023/10/11 09:03:18;;;;;;;1188.57;474.17;;;17.70;99.90;;;;;;5135336;27;20293;-82
2023/10/11 09:05:45;;;;;;;1176.22;473.88;;;17.70;99.90;;;;;;5152823;27;20846;-80
2023/10/11 09:08:27;;;;;;;1266.30;538.23;;;17.80;99.90;;;;;;5139550;27;20125;-84
2023/10/11 09:11:12;;;;;;;1256.33;534.83;;;17.80;99.90;;;;;;5121500;27;20312;-84
2023/10/11 09:13:38;;;;;;;1174.97;487.93;;;17.80;99.90;;;;;;5157304;27;20296;-82
2023/10/11 09:16:12;;;;;;;1252.93;539.07;;;17.80;99.90;;;;;;5155558;27;20337;-84
2023/10/11 09:18:41;;;;;;;1192.30;480.77;;;17.70;99.90;;;;;;5138070;27;20303;-85
2023/10/11 09:21:17;;;;;;;1207.60;476.87;;;17.70;99.90;;;;;;5138289;27;20352;-84
2023/10/11 09:23:47;;;;;;;1358.20;552.67;;;17.70;99.90;;;;;;5156897;27;20284;-84
2023/10/11 09:26:32;;;;;;;1358.63;563.03;;;17.70;99.90;;;;;;5156823;27;20375;-84
2023/10/11 09:29:05;;;;;;;1367.00;535.60;;;17.80;99.90;;;;;;5138409;27;20284;-84
2023/10/11 09:31:35;;;;;;;1266.27;488.43;;;17.90;99.90;;;;;;5156509;27;20045;-84
2023/10/11 09:34:05;;;;;;;1376.93;541.00;;;17.90;99.90;;;;;;5137230;27;20280;-86
2023/10/11 09:36:31;;;;;;;1325.27;539.57;;;18.00;99.90;;;;;;5138032;27;20304;-89
2023/10/11 09:38:58;;;;;;;1307.17;536.60;;;18.00;99.90;;;;;;5138771;27;20288;-89
2023/10/11 09:41:31;;;;;;;1196.23;490.77;;;18.10;99.90;;;;;;5138214;27;20716;-89
2023/10/11 09:43:58;;;;;;;1284.83;541.50;;;18.20;99.90;;;;;;5121504;27;20280;-88
2023/10/11 09:46:30;;;;;;;1175.27;473.90;;;18.20;99.90;;;;;;5157220;27;20318;-91
2023/10/11 09:48:57;;;;;;;1278.13;541.70;;;18.20;99.90;;;;;;5121277;27;20050;-90
2023/10/11 09:51:24;;;;;;;1276.93;539.57;;;18.30;99.90;;;;;;5138389;27;20712;-85
2023/10/11 09:53:51;;;;;;;1182.70;484.80;;;18.30;99.90;;;;;;5157053;27;20755;-85
2023/10/11 09:56:48;;;;;;;1278.90;539.27;;;18.30;99.90;;;;;;5158014;27;20319;-88
2023/10/11 09:59:41;;;;;;;1171.07;478.13;;;18.30;99.90;;;;;;5138789;27;20289;-85
2023/10/11 10:02:21;;;;;;;1174.40;483.93;;;18.40;99.90;;;;;;5158245;27;20691;-85
2023/10/11 10:04:50;;;;;;;1186.10;485.77;;;18.50;99.90;;;;;;5157851;27;20632;-91
2023/10/11 10:07:25;;;;;;;1279.20;541.17;;;18.50;99.90;;;;;;5138034;27;20284;-88
2023/10/11 10:09:59;;;;;;;1287.77;541.90;;;18.60;99.90;;;;;;5156117;27;20363;-86
2023/10/11 10:12:40;;;;;;;1285.07;543.60;;;18.70;99.90;;;;;;5137519;27;20898;-91
2023/10/11 10:15:14;;;;;;;1175.27;487.50;;;18.80;99.90;;;;;;5137517;27;20300;-84
2023/10/11 10:18:00;;;;;;;1178.93;482.90;;;18.80;99.90;;;;;;5120394;27;20303;-86
2023/10/11 10:20:33;;;;;;;1269.73;540.53;;;18.80;99.90;;;;;;5133466;27;20342;-83
2023/10/11 10:23:17;;;;;;;1273.83;543.47;;;18.80;99.90;;;;;;5117192;27;20290;-86
2023/10/11 10:25:47;;;;;;;1273.30;543.43;;;18.70;99.90;;;;;;5136578;27;20633;-84
2023/10/11 10:28:45;;;;;;;1260.10;543.87;;;18.70;99.90;;;;;;5136144;27;20823;-83
2023/10/11 10:31:21;;;;;;;1251.67;540.30;;;18.60;99.90;;;;;;5135148;27;20288;-84
2023/10/11 10:34:12;;;;;;;1263.07;543.90;;;18.60;99.90;;;;;;5147403;27;20284;-83
2023/10/11 10:36:40;;;;;;;1163.33;489.90;;;18.60;99.90;;;;;;5125624;27;20320;-83
2023/10/11 10:39:36;;;;;;;1159.60;485.07;;;18.70;99.90;;;;;;5137003;27;20292;-84
2023/10/11 10:42:15;;;;;;;1161.43;486.15;;;18.80;99.90;;;;;;5116934;27;20832;-83
2023/10/11 10:44:52;;;;;;;1254.00;545.07;;;18.90;99.90;;;;;;5134740;27;20039;-84
2023/10/11 10:47:26;;;;;;;1252.97;545.20;;;19.00;99.90;;;;;;5116529;27;20636;-84
2023/10/11 10:49:54;;;;;;;1245.77;538.90;;;19.00;99.90;;;;;;5121808;27;20356;-83
2023/10/11 10:52:30;;;;;;;1166.90;487.53;;;19.00;99.90;;;;;;5137210;27;20296;-82
2023/10/11 10:55:04;;;;;;;1166.47;483.50;;;19.00;99.90;;;;;;5136600;27;20345;-82
2023/10/11 10:57:37;;;;;;;1267.40;546.17;;;19.00;99.90;;;;;;5099130;27;20297;-83
2023/10/11 11:00:21;;;;;;;1177.33;489.70;;;19.00;99.90;;;;;;5123704;27;20683;-83
2023/10/11 11:02:46;;;;;;;1277.13;545.67;;;19.00;99.90;;;;;;5146717;27;20288;-83
2023/10/11 11:05:15;;;;;;;1265.87;546.87;;;19.10;99.90;;;;;;5143622;27;20645;-83
2023/10/11 11:07:47;;;;;;;1170.20;491.97;;;19.20;99.90;;;;;;5121890;27;20085;-83
2023/10/11 11:10:21;;;;;;;1173.63;493.00;;;19.30;99.90;;;;;;5134482;27;20288;-83
2023/10/11 11:12:50;;;;;;;1271.33;546.13;;;19.30;99.90;;;;;;5134445;27;20283;-83
2023/10/11 11:15:22;;;;;;;1258.50;545.33;;;19.30;99.90;;;;;;5142743;27;20308;-85
2023/10/11 11:17:50;;;;;;;1160.13;489.07;;;19.20;99.90;;;;;;5136276;27;20383;-83
2023/10/11 11:22:52;;;;;;;1256.10;546.00;;;19.20;99.90;;;;;;5134249;27;20284;-83
2023/10/11 11:28:25;;;;;;;1239.10;542.27;;;19.10;99.90;;;;;;5155109;27;20284;-83
2023/10/11 11:30:50;;;;;;;1254.20;546.07;;;19.10;99.90;;;;;;5044912;28;20306;-84
2023/10/11 11:33:36;;;;;;;1254.50;543.80;;;19.20;99.90;;;;;;5035683;28;20291;-86
2023/10/11 11:36:11;;;;;;;1160.40;488.13;;;19.20;99.90;;;;;;5031395;28;20106;-87
2023/10/11 11:38:48;;;;;;;1266.70;547.88;;;19.30;99.90;;;;;;5039001;28;20029;-85
2023/10/11 11:41:17;;;;;;;1158.20;488.97;;;19.30;99.90;;;;;;5050305;28;20048;-82
2023/10/11 11:43:46;;;;;;;1150.43;488.67;;;19.40;99.90;;;;;;5049278;28;20288;-82
2023/10/11 11:46:15;;;;;;;1147.60;487.83;;;19.50;99.90;;;;;;5049985;28;20318;-83
2023/10/11 11:48:41;;;;;;;1236.57;542.63;;;19.50;99.90;;;;;;5050287;28;20315;-83
2023/10/11 11:51:16;;;;;;;1153.37;492.73;;;19.50;99.90;;;;;;5034058;28;20291;-83
2023/10/11 11:53:45;;;;;;;1235.32;548.08;;;19.60;99.90;;;;;;5050579;28;20821;-83
2023/10/11 11:56:14;;;;;;;1148.77;490.63;;;19.60;99.90;;;;;;5050225;28;20049;-83
2023/10/11 11:58:45;;;;;;;1188.70;544.50;;;19.60;99.90;;;;;;5050256;28;20280;-82
2023/10/11 12:01:15;;;;;;;1178.23;547.53;;;19.50;99.90;;;;;;5047986;28;20338;-83
2023/10/11 12:03:42;;;;;;;1115.50;498.97;;;19.50;99.90;;;;;;5030570;28;20284;-83
2023/10/11 12:06:21;;;;;;;1147.57;551.83;;;19.60;99.90;;;;;;5039057;28;20288;-83
2023/10/11 12:08:57;;;;;;;1097.27;495.20;;;19.60;99.90;;;;;;5133591;28;20284;-83
2023/10/11 12:11:30;;;;;;;1167.60;550.70;;;19.60;99.90;;;;;;5115235;28;20804;-83
2023/10/11 12:14:00;;;;;;;1177.87;545.00;;;19.80;99.90;;;;;;5133698;28;20745;-83
2023/10/11 12:16:27;;;;;;;1179.10;550.87;;;19.90;99.90;;;;;;5098187;28;20414;-83
2023/10/11 12:18:59;;;;;;;1165.90;555.87;;;20.00;99.90;;;;;;5133427;28;20280;-82
2023/10/11 12:21:26;;;;;;;1170.83;547.97;;;20.10;99.90;;;;;;5133651;28;20629;-83
2023/10/11 12:23:52;;;;;;;1196.60;546.03;;;20.20;99.90;;;;;;5115264;28;20869;-83
2023/10/11 12:26:17;;;;;;;1118.93;499.73;;;20.20;99.90;;;;;;5133285;28;20331;-82
2023/10/11 12:28:49;;;;;;;1203.47;552.00;;;20.20;99.90;;;;;;5133366;28;20518;-83
2023/10/11 12:31:18;;;;;;;1197.97;550.77;;;20.10;99.90;;;;;;5115310;28;20039;-83
2023/10/11 12:33:44;;;;;;;1135.73;502.80;;;20.10;99.90;;;;;;5115156;28;20840;-82
2023/10/11 12:36:11;;;;;;;1210.37;551.17;;;20.00;99.90;;;;;;5114797;28;20313;-82
2023/10/11 12:38:39;;;;;;;1139.87;492.33;;;19.90;99.90;;;;;;5097906;28;20296;-82
2023/10/11 12:41:14;;;;;;;1136.83;498.97;;;19.90;99.90;;;;;;5114856;27;20296;-82
2023/10/11 12:43:39;;;;;;;1233.83;552.00;;;19.90;99.90;;;;;;5137349;27;20409;-82
2023/10/11 12:46:05;;;;;;;1149.03;504.23;;;19.90;99.90;;;;;;5119062;27;20801;-82
2023/10/11 12:48:32;;;;;;;1234.40;553.87;;;19.90;99.90;;;;;;5137165;27;20039;-83
2023/10/11 12:50:58;;;;;;;1252.70;556.40;;;19.80;99.90;;;;;;5137091;27;20103;-82
2023/10/11 12:53:28;;;;;;;1251.37;550.63;;;19.80;99.90;;;;;;5101907;27;20285;-82
2023/10/11 12:55:54;;;;;;;1178.87;517.07;;;19.80;99.90;;;;;;5114973;28;20060;-83
2023/10/11 12:58:27;;;;;;;1196.53;518.67;;;19.80;99.90;;;;;;5115412;28;20289;-82
2023/10/11 13:01:04;;;;;;;1219.50;523.67;;;19.70;99.90;;;;;;5098180;28;20347;-82
2023/10/11 13:03:37;;;;;;;1227.53;529.30;;;19.70;99.90;;;;;;5132244;27;20292;-82
2023/10/11 13:06:04;;;;;;;1238.03;524.83;;;19.60;99.90;;;;;;5116200;28;20309;-82
2023/10/11 13:08:32;;;;;;;1347.27;552.17;;;19.70;99.90;;;;;;5115101;28;20063;-82
2023/10/11 13:11:00;;;;;;;1344.73;551.07;;;19.60;99.90;;;;;;5116120;28;20043;-82
2023/10/11 13:13:27;;;;;;;1232.60;515.67;;;19.70;99.90;;;;;;5116147;28;20098;-82
2023/10/11 13:16:00;;;;;;;1236.63;523.50;;;19.70;99.90;;;;;;5115738;28;20131;-82
2023/10/11 13:18:29;;;;;;;1355.37;550.70;;;19.70;99.90;;;;;;5115969;28;20301;-82
2023/10/11 13:20:56;;;;;;;1259.37;519.67;;;19.60;99.90;;;;;;5115845;27;20058;-82
2023/10/11 13:23:28;;;;;;;1358.50;547.43;;;19.60;99.90;;;;;;5114952;28;20626;-82
2023/10/11 13:25:56;;;;;;;1255.30;513.40;;;19.60;99.90;;;;;;5115760;28;20360;-82